Weather reports worldwide

Advertisment
Monte Cimone, Italy (16134): temperature & dewpoint: 17.09.2020 08:00:00 - 23.09.2020 08:00:00 (CEST)Monte Cimone, Italy (16134): wind speed & gusts: 17.09.2020 08:00:00 - 23.09.2020 08:00:00 (CEST)Monte Cimone, Italy (16134): wind direction: 17.09.2020 08:00:00 - 23.09.2020 08:00:00 (CEST)Monte Cimone, Italy (16134): sunshine duration: 17.09.2020 08:00:00 - 23.09.2020 08:00:00 (CEST)
Date & Time tt [°C] td [°C] ff [km/h] ff [kn] fx [km/h] fx [kn] dd sd [min]
23.09.2020 08:00:00 6,9 6,1 35 19 - - SSW 0
23.09.2020 07:00:00 6,8 5,8 28 15 43 23 SW 0
23.09.2020 06:00:00 7,2 5,2 35 19 48 26 SW 0
23.09.2020 05:00:00 7,2 6,0 34 18 - - SSW 0
23.09.2020 04:00:00 7,1 6,0 28 15 43 23 SW 0
23.09.2020 03:00:00 6,8 6,1 31 17 48 26 SW 0
23.09.2020 02:00:00 6,9 5,5 26 14 - - SW 0
23.09.2020 01:00:00 6,9 5,6 29 16 42 23 SW 0
23.09.2020 00:00:00 7,1 5,9 31 17 48 26 SW 0
22.09.2020 23:00:00 7,6 6,1 21 11 - - SW 0
22.09.2020 22:00:00 7,4 5,9 29 16 37 20 SW 0
22.09.2020 21:00:00 7,7 5,5 22 12 - - SW 0
22.09.2020 20:00:00 8,1 6,2 24 13 - - SW 0
22.09.2020 19:00:00 8,7 6,4 31 17 - - SW 0
22.09.2020 18:00:00 9,1 6,2 34 18 - - SSW 12
22.09.2020 17:00:00 9,5 7,4 24 13 - - SSW 37
22.09.2020 16:00:00 10,4 7,8 18 10 31 17 SSW 15
22.09.2020 15:00:00 9,4 7,2 18 10 29 15 SSW 0
22.09.2020 14:00:00 9,6 7,7 4 2 - - N 2
22.09.2020 13:00:00 10,2 8,3 4 2 21 11 N 1
22.09.2020 12:00:00 10,1 7,6 9 5 - - SSW 1
22.09.2020 11:00:00 10,3 7,3 4 2 - - N 5
22.09.2020 10:00:00 10,6 6,9 4 2 - - N 30
22.09.2020 09:00:00 10,2 6,2 4 2 - - N 60
22.09.2020 08:00:00 9,3 4,6 9 5 - - S 19
22.09.2020 07:00:00 9,3 4,2 8 4 - - SSW 0
22.09.2020 06:00:00 9,1 4,4 8 4 - - SSW 0
22.09.2020 05:00:00 9,3 4,6 5 3 - - SSW 0
22.09.2020 04:00:00 9,1 4,5 9 5 - - SSW 0
22.09.2020 03:00:00 9,5 4,4 4 2 - - N 0
22.09.2020 02:00:00 9,6 4,3 5 3 - - S 0
22.09.2020 01:00:00 9,6 4,5 4 2 - - N 0
22.09.2020 00:00:00 9,9 5,3 16 9 - - SW 0
21.09.2020 23:00:00 9,8 5,1 16 9 - - SW 0
21.09.2020 22:00:00 9,8 5,4 13 7 - - SSW 0
21.09.2020 21:00:00 9,7 6,1 18 10 - - SSW 0
21.09.2020 20:00:00 9,6 5,8 18 10 - - SSW 0
21.09.2020 19:00:00 9,8 5,8 13 7 - - S 7
21.09.2020 18:00:00 10,1 6,4 9 5 - - S 7
21.09.2020 17:00:00 10,2 7,3 11 6 - - ENE 0
21.09.2020 16:00:00 11,0 6,3 9 5 - - ESE 0
21.09.2020 15:00:00 10,9 7,8 5 3 - - E 0
21.09.2020 14:00:00 11,9 8,6 4 2 - - N 0
21.09.2020 13:00:00 12,1 8,0 4 2 19 11 N 6
21.09.2020 12:00:00 12,9 8,2 4 2 - - N 46
21.09.2020 11:00:00 11,8 6,6 4 2 - - N 44
21.09.2020 10:00:00 11,0 5,1 4 2 - - N 44
21.09.2020 09:00:00 10,1 4,8 4 2 - - N 59
21.09.2020 08:00:00 9,2 3,7 13 7 - - SSW 20
21.09.2020 07:00:00 8,5 3,1 5 3 - - WSW 0
21.09.2020 06:00:00 8,9 3,2 8 4 - - SW 0
21.09.2020 05:00:00 9,1 2,1 9 5 - - WNW 0
21.09.2020 04:00:00 9,2 2,7 16 9 - - W 0
21.09.2020 03:00:00 9,1 4,5 22 12 - - W 0
21.09.2020 02:00:00 8,5 4,8 18 10 - - WSW 0
21.09.2020 01:00:00 9,4 5,5 13 7 - - SW 0
21.09.2020 00:00:00 9,5 5,9 15 8 - - SSW 0
20.09.2020 23:00:00 9,7 6,7 31 17 - - SW 0
20.09.2020 22:00:00 9,3 6,7 34 18 - - SSW 0
20.09.2020 21:00:00 9,6 6,7 22 12 - - SSW 0
20.09.2020 20:00:00 9,9 7,6 13 7 - - SSW 0
20.09.2020 19:00:00 9,6 7,6 4 2 - - N 0
20.09.2020 18:00:00 9,4 7,1 21 11 39 21 S 0
20.09.2020 17:00:00 11,2 7,7 4 2 - - N 2
20.09.2020 16:00:00 12,5 8,1 4 2 19 10 N 43
20.09.2020 15:00:00 12,0 9,1 4 2 23 13 N 17
20.09.2020 14:00:00 13,4 9,0 4 2 - - N 36
20.09.2020 13:00:00 12,4 8,0 4 2 26 14 N 53
20.09.2020 12:00:00 11,6 7,4 4 2 25 14 N 43
20.09.2020 11:00:00 10,5 5,8 21 11 - - SW 0
20.09.2020 10:00:00 9,3 5,2 28 15 41 22 SSW 0
20.09.2020 09:00:00 9,5 6,9 41 22 52 28 SSW 0
20.09.2020 08:00:00 9,9 5,3 31 17 - - SSW 19
20.09.2020 07:00:00 10,3 4,2 16 9 - - SW 0
20.09.2020 06:00:00 10,6 4,9 13 7 - - SW 0
20.09.2020 05:00:00 10,5 4,3 16 9 - - WSW 0
20.09.2020 04:00:00 10,7 3,9 18 10 28 15 WSW 0
20.09.2020 03:00:00 10,8 3,3 15 8 - - SW 0
20.09.2020 02:00:00 10,9 4,4 15 8 - - SW 0
20.09.2020 01:00:00 11,2 4,1 15 8 23 12 SW 0
20.09.2020 00:00:00 11,3 4,2 18 10 - - SW 0
19.09.2020 23:00:00 10,6 5,1 24 13 - - SW 0
19.09.2020 22:00:00 11,4 3,4 22 12 - - SW 0
19.09.2020 21:00:00 11,6 2,5 18 10 - - SW 0
19.09.2020 20:00:00 11,5 6,2 13 7 - - SW 0
19.09.2020 19:00:00 11,7 9,3 16 9 - - SSW 10
19.09.2020 18:00:00 12,3 9,7 4 2 - - N 17
19.09.2020 17:00:00 13,2 9,7 4 2 - - N 33
19.09.2020 16:00:00 13,5 9,4 4 2 - - N 14
19.09.2020 15:00:00 12,6 9,5 4 2 - - N 0
19.09.2020 14:00:00 12,5 9,1 4 2 - - N 0
19.09.2020 13:00:00 12,5 9,0 4 2 - - N 25
19.09.2020 12:00:00 13,5 8,8 4 2 - - N 56
19.09.2020 11:00:00 12,4 6,2 4 2 - - N 60
19.09.2020 10:00:00 11,3 4,7 16 9 - - SE 50
19.09.2020 09:00:00 10,2 3,7 15 8 - - SSE 27
19.09.2020 08:00:00 9,8 4,2 21 11 - - SE 22
19.09.2020 07:00:00 8,9 4,6 18 10 - - ESE 0
19.09.2020 06:00:00 8,6 4,7 18 10 - - E 0
19.09.2020 05:00:00 8,8 5,0 29 16 - - E 0
19.09.2020 04:00:00 9,0 5,3 21 11 - - E 0
19.09.2020 03:00:00 8,4 5,0 24 13 - - NE 0
19.09.2020 02:00:00 8,8 4,9 24 13 - - NE 0
19.09.2020 01:00:00 8,9 5,1 24 13 - - NNE 0
19.09.2020 00:00:00 8,1 5,5 28 15 37 20 NNE 0
18.09.2020 23:00:00 8,4 4,6 34 18 - - NNE 0
18.09.2020 22:00:00 8,1 5,7 31 17 44 24 NNE 0
18.09.2020 21:00:00 8,3 5,8 42 23 53 28 NE 0
18.09.2020 20:00:00 8,3 7,7 41 22 - - NNE 0
18.09.2020 19:00:00 8,7 8,3 4 2 28 15 N 1
18.09.2020 18:00:00 9,4 9,0 4 2 37 20 N 12
18.09.2020 17:00:00 10,1 9,0 4 2 - - N 32
18.09.2020 16:00:00 10,3 8,5 4 2 25 14 N 19
18.09.2020 15:00:00 10,4 7,5 4 2 28 15 N 42
18.09.2020 14:00:00 9,9 7,2 4 2 - - N 53
18.09.2020 13:00:00 9,7 7,8 4 2 49 26 N 53
18.09.2020 12:00:00 9,2 6,4 29 16 49 27 NNE 58
18.09.2020 11:00:00 8,8 7,2 4 2 - - N 59
18.09.2020 10:00:00 8,8 6,6 31 17 65 35 NNE 60
18.09.2020 09:00:00 8,3 6,8 34 18 63 34 NNE 60
18.09.2020 08:00:00 8,1 6,7 4 2 - - N 13
18.09.2020 07:00:00 7,9 7,2 4 2 39 21 N 0
18.09.2020 06:00:00 8,0 6,9 4 2 38 21 N 0
18.09.2020 05:00:00 8,2 6,7 4 2 - - N 0
18.09.2020 04:00:00 8,4 6,0 4 2 37 20 N 0
18.09.2020 03:00:00 8,5 6,2 4 2 43 23 N 0
18.09.2020 02:00:00 8,5 6,7 4 2 - - N 0
18.09.2020 01:00:00 8,3 7,5 46 25 68 37 NNE 0
18.09.2020 00:00:00 8,5 6,6 48 26 64 34 NE 0
17.09.2020 23:00:00 8,4 8,0 50 27 - - NE 0
17.09.2020 22:00:00 8,8 7,5 48 26 61 33 NE 0
17.09.2020 21:00:00 9,1 8,9 52 28 - - NE 0
17.09.2020 20:00:00 9,4 9,2 46 25 - - ENE 9
17.09.2020 19:00:00 9,6 9,3 42 23 51 28 ENE 21
17.09.2020 18:00:00 10,0 9,0 24 13 38 20 NNE 43
17.09.2020 17:00:00 10,6 8,1 4 2 - - N 50
17.09.2020 16:00:00 10,6 7,9 34 18 45 24 NE 48
17.09.2020 15:00:00 10,5 8,5 28 15 41 22 NE 37
17.09.2020 14:00:00 10,0 8,8 37 20 - - NE 1
17.09.2020 13:00:00 10,0 9,1 24 13 41 22 NNE 44
17.09.2020 12:00:00 10,1 7,6 46 25 64 34 NE 40
17.09.2020 11:00:00 10,0 8,0 35 19 - - NE 58
17.09.2020 10:00:00 9,9 8,9 4 2 40 22 N 3
17.09.2020 09:00:00 9,6 8,7 4 2 39 21 N 0
17.09.2020 08:00:00 9,4 8,1 26 14 - - NNE 0

tt = temperature
td = dewpoint
ff = wind speed
fx = gusts
dd = wind direction
sd = sunshine duration

Next stations